sensor_id;sensor_type;location;lat;lon;timestamp;pressure;altitude;pressure_sealevel;temperature;humidity
63903;BME280;50072;50.678;13.938;2023-04-02T00:06:39;98570.63;;;8.55;100.00
63903;BME280;50072;50.678;13.938;2023-04-02T00:11:49;98573.50;;;8.49;100.00
63903;BME280;50072;50.678;13.938;2023-04-02T00:14:26;98581.66;;;8.44;100.00
63903;BME280;50072;50.678;13.938;2023-04-02T00:17:08;98587.88;;;8.44;100.00
63903;BME280;50072;50.678;13.938;2023-04-02T00:19:53;98593.88;;;8.51;100.00
63903;BME280;50072;50.678;13.938;2023-04-02T00:22:43;98596.75;;;8.43;100.00
63903;BME280;50072;50.678;13.938;2023-04-02T00:25:15;98601.16;;;8.46;100.00
63903;BME280;50072;50.678;13.938;2023-04-02T00:27:43;98603.94;;;8.41;100.00
63903;BME280;50072;50.678;13.938;2023-04-02T00:30:12;98604.66;;;8.48;100.00
63903;BME280;50072;50.678;13.938;2023-04-02T00:32:44;98604.69;;;8.46;100.00
63903;BME280;50072;50.678;13.938;2023-04-02T00:35:22;98611.59;;;8.52;100.00
63903;BME280;50072;50.678;13.938;2023-04-02T00:37:51;98613.63;;;8.44;100.00
63903;BME280;50072;50.678;13.938;2023-04-02T00:40:43;98614.59;;;8.41;100.00
63903;BME280;50072;50.678;13.938;2023-04-02T00:43:14;98613.75;;;8.39;100.00
63903;BME280;50072;50.678;13.938;2023-04-02T00:45:46;98623.38;;;8.46;100.00
63903;BME280;50072;50.678;13.938;2023-04-02T00:48:36;98630.25;;;8.52;100.00
63903;BME280;50072;50.678;13.938;2023-04-02T00:51:18;98632.22;;;8.47;100.00
63903;BME280;50072;50.678;13.938;2023-04-02T00:53:52;98633.97;;;8.48;100.00
63903;BME280;50072;50.678;13.938;2023-04-02T00:56:34;98644.53;;;8.51;100.00
63903;BME280;50072;50.678;13.938;2023-04-02T00:59:29;98639.03;;;8.56;100.00
63903;BME280;50072;50.678;13.938;2023-04-02T01:04:59;98632.06;;;8.52;100.00
63903;BME280;50072;50.678;13.938;2023-04-02T01:18:55;98651.47;;;8.57;100.00
63903;BME280;50072;50.678;13.938;2023-04-02T01:22:06;98658.53;;;8.58;100.00
63903;BME280;50072;50.678;13.938;2023-04-02T01:24:44;98658.63;;;8.55;100.00
63903;BME280;50072;50.678;13.938;2023-04-02T01:27:42;98656.75;;;8.58;100.00
63903;BME280;50072;50.678;13.938;2023-04-02T01:30:16;98666.56;;;8.56;100.00
63903;BME280;50072;50.678;13.938;2023-04-02T01:32:44;98673.94;;;8.50;100.00
63903;BME280;50072;50.678;13.938;2023-04-02T01:35:16;98675.75;;;8.48;100.00
63903;BME280;50072;50.678;13.938;2023-04-02T01:40:43;98687.72;;;8.34;100.00
63903;BME280;50072;50.678;13.938;2023-04-02T01:43:40;98681.47;;;8.35;100.00
63903;BME280;50072;50.678;13.938;2023-04-02T01:46:31;98686.69;;;8.38;100.00
63903;BME280;50072;50.678;13.938;2023-04-02T01:49:18;98696.63;;;8.33;100.00
63903;BME280;50072;50.678;13.938;2023-04-02T01:51:53;98700.31;;;8.29;100.00
63903;BME280;50072;50.678;13.938;2023-04-02T01:54:27;98701.28;;;8.26;100.00
63903;BME280;50072;50.678;13.938;2023-04-02T01:56:55;98704.97;;;8.22;100.00
63903;BME280;50072;50.678;13.938;2023-04-02T01:59:43;98707.00;;;8.14;100.00
63903;BME280;50072;50.678;13.938;2023-04-02T02:02:16;98707.22;;;8.06;100.00
63903;BME280;50072;50.678;13.938;2023-04-02T02:04:43;98710.78;;;8.07;100.00
63903;BME280;50072;50.678;13.938;2023-04-02T02:07:15;98708.06;;;8.08;100.00
63903;BME280;50072;50.678;13.938;2023-04-02T02:09:44;98715.22;;;8.06;100.00
63903;BME280;50072;50.678;13.938;2023-04-02T02:12:14;98721.78;;;7.94;100.00
63903;BME280;50072;50.678;13.938;2023-04-02T02:14:50;98721.09;;;7.88;100.00
63903;BME280;50072;50.678;13.938;2023-04-02T02:17:30;98723.94;;;7.82;100.00
63903;BME280;50072;50.678;13.938;2023-04-02T02:20:15;98728.59;;;7.73;100.00
63903;BME280;50072;50.678;13.938;2023-04-02T02:22:50;98739.06;;;7.81;100.00
63903;BME280;50072;50.678;13.938;2023-04-02T02:25:23;98742.63;;;7.80;100.00
63903;BME280;50072;50.678;13.938;2023-04-02T02:28:19;98742.78;;;7.75;100.00
63903;BME280;50072;50.678;13.938;2023-04-02T02:31:12;98757.81;;;7.76;100.00
63903;BME280;50072;50.678;13.938;2023-04-02T02:33:53;98764.22;;;7.69;100.00
63903;BME280;50072;50.678;13.938;2023-04-02T02:36:46;98769.75;;;7.63;100.00
63903;BME280;50072;50.678;13.938;2023-04-02T02:39:23;98776.31;;;7.50;100.00
63903;BME280;50072;50.678;13.938;2023-04-02T02:42:03;98776.28;;;7.51;100.00
63903;BME280;50072;50.678;13.938;2023-04-02T02:44:46;98778.41;;;7.38;100.00
63903;BME280;50072;50.678;13.938;2023-04-02T02:47:24;98791.72;;;7.38;100.00
63903;BME280;50072;50.678;13.938;2023-04-02T02:50:03;98798.75;;;7.39;100.00
63903;BME280;50072;50.678;13.938;2023-04-02T02:52:36;98802.66;;;7.26;100.00
63903;BME280;50072;50.678;13.938;2023-04-02T02:57:56;98809.28;;;7.09;100.00
63903;BME280;50072;50.678;13.938;2023-04-02T03:00:25;98811.22;;;7.03;100.00
63903;BME280;50072;50.678;13.938;2023-04-02T03:02:58;98825.56;;;6.97;100.00
63903;BME280;50072;50.678;13.938;2023-04-02T03:05:43;98823.09;;;6.88;100.00
63903;BME280;50072;50.678;13.938;2023-04-02T03:11:35;98835.94;;;6.70;100.00
63903;BME280;50072;50.678;13.938;2023-04-02T03:14:19;98848.50;;;6.62;100.00
63903;BME280;50072;50.678;13.938;2023-04-02T03:16:54;98848.59;;;6.59;100.00
63903;BME280;50072;50.678;13.938;2023-04-02T03:19:44;98857.47;;;6.58;100.00
63903;BME280;50072;50.678;13.938;2023-04-02T03:22:33;98866.38;;;6.57;100.00
63903;BME280;50072;50.678;13.938;2023-04-02T03:27:57;98872.63;;;6.54;100.00
63903;BME280;50072;50.678;13.938;2023-04-02T03:30:46;98878.72;;;6.58;100.00
63903;BME280;50072;50.678;13.938;2023-04-02T03:35:51;98882.38;;;6.52;100.00
63903;BME280;50072;50.678;13.938;2023-04-02T03:41:18;98895.94;;;6.42;100.00
63903;BME280;50072;50.678;13.938;2023-04-02T03:44:16;98905.66;;;6.41;100.00
63903;BME280;50072;50.678;13.938;2023-04-02T03:46:54;98918.09;;;6.41;100.00
63903;BME280;50072;50.678;13.938;2023-04-02T03:50:14;98926.88;;;6.43;100.00
63903;BME280;50072;50.678;13.938;2023-04-02T03:52:43;98924.44;;;6.33;100.00
63903;BME280;50072;50.678;13.938;2023-04-02T03:55:20;98946.59;;;6.32;100.00
63903;BME280;50072;50.678;13.938;2023-04-02T04:00:57;98949.44;;;6.23;100.00
63903;BME280;50072;50.678;13.938;2023-04-02T04:03:29;98964.56;;;6.19;100.00
63903;BME280;50072;50.678;13.938;2023-04-02T04:06:05;98971.75;;;6.13;100.00
63903;BME280;50072;50.678;13.938;2023-04-02T04:08:52;98970.16;;;6.02;100.00
63903;BME280;50072;50.678;13.938;2023-04-02T04:11:25;98981.03;;;5.87;100.00
63903;BME280;50072;50.678;13.938;2023-04-02T04:14:05;98986.31;;;5.90;100.00
63903;BME280;50072;50.678;13.938;2023-04-02T04:24:49;99014.16;;;5.64;100.00
63903;BME280;50072;50.678;13.938;2023-04-02T04:30:25;99025.81;;;5.54;100.00
63903;BME280;50072;50.678;13.938;2023-04-02T04:33:04;99030.34;;;5.47;100.00
63903;BME280;50072;50.678;13.938;2023-04-02T04:35:44;99035.66;;;5.47;100.00
63903;BME280;50072;50.678;13.938;2023-04-02T04:43:42;99049.00;;;5.40;99.40
63903;BME280;50072;50.678;13.938;2023-04-02T04:46:18;99054.38;;;5.36;98.79
63903;BME280;50072;50.678;13.938;2023-04-02T04:49:08;99062.44;;;5.29;98.43
63903;BME280;50072;50.678;13.938;2023-04-02T04:51:50;99072.22;;;5.25;98.83
63903;BME280;50072;50.678;13.938;2023-04-02T04:54:43;99071.31;;;5.26;98.66
63903;BME280;50072;50.678;13.938;2023-04-02T04:57:29;99077.56;;;5.22;97.70
63903;BME280;50072;50.678;13.938;2023-04-02T05:00:05;99081.94;;;5.26;97.66
63903;BME280;50072;50.678;13.938;2023-04-02T05:05:41;99088.97;;;5.30;96.43
63903;BME280;50072;50.678;13.938;2023-04-02T05:08:18;99097.78;;;5.31;97.84
63903;BME280;50072;50.678;13.938;2023-04-02T05:10:59;99105.72;;;5.32;97.64
63903;BME280;50072;50.678;13.938;2023-04-02T05:13:53;99115.41;;;5.36;97.03
63903;BME280;50072;50.678;13.938;2023-04-02T05:16:39;99110.88;;;5.45;97.77
63903;BME280;50072;50.678;13.938;2023-04-02T05:19:13;99120.50;;;5.52;97.26
63903;BME280;50072;50.678;13.938;2023-04-02T05:24:50;99138.13;;;5.59;94.84
63903;BME280;50072;50.678;13.938;2023-04-02T05:33:16;99147.94;;;5.51;94.42
63903;BME280;50072;50.678;13.938;2023-04-02T05:35:46;99156.84;;;5.47;94.39
63903;BME280;50072;50.678;13.938;2023-04-02T05:38:21;99162.09;;;5.50;94.25
63903;BME280;50072;50.678;13.938;2023-04-02T05:43:45;99169.09;;;5.57;94.22
63903;BME280;50072;50.678;13.938;2023-04-02T05:46:17;99173.59;;;5.52;92.66
63903;BME280;50072;50.678;13.938;2023-04-02T05:48:51;99185.94;;;5.56;94.17
63903;BME280;50072;50.678;13.938;2023-04-02T05:51:27;99187.59;;;5.65;92.55
63903;BME280;50072;50.678;13.938;2023-04-02T05:54:00;99185.81;;;5.65;92.88
63903;BME280;50072;50.678;13.938;2023-04-02T05:56:45;99186.63;;;5.70;91.70
63903;BME280;50072;50.678;13.938;2023-04-02T05:59:25;99190.13;;;5.73;90.60
63903;BME280;50072;50.678;13.938;2023-04-02T06:02:09;99208.69;;;5.77;90.25
63903;BME280;50072;50.678;13.938;2023-04-02T06:04:57;99201.59;;;5.76;90.06
63903;BME280;50072;50.678;13.938;2023-04-02T06:07:35;99201.66;;;5.70;91.35
63903;BME280;50072;50.678;13.938;2023-04-02T06:10:15;99204.38;;;5.65;91.87
63903;BME280;50072;50.678;13.938;2023-04-02T06:15:29;99226.06;;;5.28;92.85
63903;BME280;50072;50.678;13.938;2023-04-02T06:18:04;99241.13;;;5.26;94.48
63903;BME280;50072;50.678;13.938;2023-04-02T06:20:30;99228.75;;;5.24;93.75
63903;BME280;50072;50.678;13.938;2023-04-02T06:25:46;99243.88;;;5.14;93.23
63903;BME280;50072;50.678;13.938;2023-04-02T06:28:40;99249.16;;;5.17;94.23
63903;BME280;50072;50.678;13.938;2023-04-02T06:31:11;99264.19;;;5.19;93.46
63903;BME280;50072;50.678;13.938;2023-04-02T06:33:42;99264.19;;;5.19;93.27
63903;BME280;50072;50.678;13.938;2023-04-02T06:36:08;99277.50;;;5.15;93.99
63903;BME280;50072;50.678;13.938;2023-04-02T06:38:34;99278.31;;;5.20;92.62
63903;BME280;50072;50.678;13.938;2023-04-02T06:41:20;99285.25;;;5.35;93.15
63903;BME280;50072;50.678;13.938;2023-04-02T06:43:54;99296.66;;;5.45;92.58
63903;BME280;50072;50.678;13.938;2023-04-02T06:51:57;99299.03;;;5.69;90.08
63903;BME280;50072;50.678;13.938;2023-04-02T06:54:25;99312.31;;;5.69;86.85
63903;BME280;50072;50.678;13.938;2023-04-02T06:56:52;99314.13;;;5.66;87.54
63903;BME280;50072;50.678;13.938;2023-04-02T06:59:19;99312.44;;;5.60;86.43
63903;BME280;50072;50.678;13.938;2023-04-02T07:01:46;99327.59;;;5.44;86.52
63903;BME280;50072;50.678;13.938;2023-04-02T07:04:13;99317.81;;;5.51;86.33
63903;BME280;50072;50.678;13.938;2023-04-02T07:06:39;99328.41;;;5.54;85.90
63903;BME280;50072;50.678;13.938;2023-04-02T07:09:06;99320.53;;;5.46;86.68
63903;BME280;50072;50.678;13.938;2023-04-02T07:11:33;99339.00;;;5.54;86.11
63903;BME280;50072;50.678;13.938;2023-04-02T07:13:59;99338.91;;;5.65;85.09
63903;BME280;50072;50.678;13.938;2023-04-02T07:16:26;99347.44;;;5.96;87.18
63903;BME280;50072;50.678;13.938;2023-04-02T07:18:54;99350.84;;;6.11;84.88
63903;BME280;50072;50.678;13.938;2023-04-02T07:21:25;99354.19;;;6.25;84.37
63903;BME280;50072;50.678;13.938;2023-04-02T07:23:52;99367.41;;;6.30;81.45
63903;BME280;50072;50.678;13.938;2023-04-02T07:26:21;99366.44;;;6.38;82.16
63903;BME280;50072;50.678;13.938;2023-04-02T07:28:48;99369.09;;;6.40;81.30
63903;BME280;50072;50.678;13.938;2023-04-02T07:31:19;99379.00;;;6.24;81.56
63903;BME280;50072;50.678;13.938;2023-04-02T07:33:47;99385.28;;;6.20;81.60
63903;BME280;50072;50.678;13.938;2023-04-02T07:36:15;99389.66;;;6.21;84.96
63903;BME280;50072;50.678;13.938;2023-04-02T07:38:44;99389.78;;;6.13;83.13
63903;BME280;50072;50.678;13.938;2023-04-02T07:41:12;99415.47;;;6.10;83.94
63903;BME280;50072;50.678;13.938;2023-04-02T07:43:39;99418.19;;;6.07;83.57
63903;BME280;50072;50.678;13.938;2023-04-02T07:46:08;99415.63;;;5.97;84.28
63903;BME280;50072;50.678;13.938;2023-04-02T07:48:43;99419.16;;;5.99;84.76
63903;BME280;50072;50.678;13.938;2023-04-02T07:51:21;99429.06;;;5.76;83.34
63903;BME280;50072;50.678;13.938;2023-04-02T07:53:47;99424.78;;;5.61;83.71
63903;BME280;50072;50.678;13.938;2023-04-02T07:56:21;99434.47;;;5.66;84.94
63903;BME280;50072;50.678;13.938;2023-04-02T07:58:53;99431.88;;;5.62;82.96
63903;BME280;50072;50.678;13.938;2023-04-02T08:01:24;99440.22;;;5.11;84.66
63903;BME280;50072;50.678;13.938;2023-04-02T08:03:52;99449.03;;;5.17;86.15
63903;BME280;50072;50.678;13.938;2023-04-02T08:06:20;99456.06;;;5.20;86.74
63903;BME280;50072;50.678;13.938;2023-04-02T08:08:51;99450.84;;;5.08;87.93
63903;BME280;50072;50.678;13.938;2023-04-02T08:11:17;99464.94;;;5.13;87.03
63903;BME280;50072;50.678;13.938;2023-04-02T08:13:44;99464.97;;;5.11;86.26
63903;BME280;50072;50.678;13.938;2023-04-02T08:16:13;99473.00;;;5.02;86.21
63903;BME280;50072;50.678;13.938;2023-04-02T08:18:39;99480.00;;;5.11;87.13
63903;BME280;50072;50.678;13.938;2023-04-02T08:21:08;99496.84;;;5.04;86.92
63903;BME280;50072;50.678;13.938;2023-04-02T08:23:36;99493.41;;;4.83;86.84
63903;BME280;50072;50.678;13.938;2023-04-02T08:26:03;99496.97;;;4.79;87.06
63903;BME280;50072;50.678;13.938;2023-04-02T08:28:30;99504.88;;;4.87;86.95
63903;BME280;50072;50.678;13.938;2023-04-02T08:30:56;99506.66;;;4.88;86.70
63903;BME280;50072;50.678;13.938;2023-04-02T08:33:22;99512.06;;;4.68;85.89
63903;BME280;50072;50.678;13.938;2023-04-02T08:35:49;99518.19;;;4.76;86.60
63903;BME280;50072;50.678;13.938;2023-04-02T08:38:17;99517.28;;;4.81;87.18
63903;BME280;50072;50.678;13.938;2023-04-02T08:40:47;99532.25;;;4.90;86.14
63903;BME280;50072;50.678;13.938;2023-04-02T08:46:31;99537.63;;;4.76;87.48
63903;BME280;50072;50.678;13.938;2023-04-02T08:49:01;99548.19;;;4.84;87.76
63903;BME280;50072;50.678;13.938;2023-04-02T08:51:30;99544.63;;;4.94;87.76
63903;BME280;50072;50.678;13.938;2023-04-02T08:54:05;99552.59;;;4.99;87.39
63903;BME280;50072;50.678;13.938;2023-04-02T08:56:44;99558.78;;;4.96;87.13
63903;BME280;50072;50.678;13.938;2023-04-02T09:04:39;99562.28;;;4.98;87.05
63903;BME280;50072;50.678;13.938;2023-04-02T09:07:10;99570.28;;;4.94;87.50
63903;BME280;50072;50.678;13.938;2023-04-02T09:09:38;99564.94;;;5.00;87.07
63903;BME280;50072;50.678;13.938;2023-04-02T09:12:10;99581.69;;;5.10;86.70
63903;BME280;50072;50.678;13.938;2023-04-02T09:14:43;99586.13;;;5.09;86.29
63903;BME280;50072;50.678;13.938;2023-04-02T09:17:23;99593.19;;;5.15;87.96
63903;BME280;50072;50.678;13.938;2023-04-02T09:22:31;99595.75;;;5.30;81.97
63903;BME280;50072;50.678;13.938;2023-04-02T09:25:01;99608.13;;;5.31;81.08
63903;BME280;50072;50.678;13.938;2023-04-02T09:27:33;99618.69;;;5.44;81.24
63903;BME280;50072;50.678;13.938;2023-04-02T09:35:24;99631.81;;;5.68;79.99
63903;BME280;50072;50.678;13.938;2023-04-02T09:43:13;99645.09;;;5.73;78.94
63903;BME280;50072;50.678;13.938;2023-04-02T09:45:41;99652.16;;;5.73;78.53
63903;BME280;50072;50.678;13.938;2023-04-02T09:48:42;99658.44;;;5.51;77.63
63903;BME280;50072;50.678;13.938;2023-04-02T09:51:13;99667.28;;;5.58;78.00
63903;BME280;50072;50.678;13.938;2023-04-02T09:53:42;99676.09;;;5.68;78.62
63903;BME280;50072;50.678;13.938;2023-04-02T09:56:22;99687.59;;;5.72;78.28
63903;BME280;50072;50.678;13.938;2023-04-02T10:01:59;99699.88;;;5.88;77.92
63903;BME280;50072;50.678;13.938;2023-04-02T10:04:44;99702.50;;;5.93;76.58
63903;BME280;50072;50.678;13.938;2023-04-02T10:07:45;99714.88;;;5.95;76.19
63903;BME280;50072;50.678;13.938;2023-04-02T10:10:45;99721.00;;;6.19;75.61
63903;BME280;50072;50.678;13.938;2023-04-02T10:16:04;99716.22;;;6.66;70.32
63903;BME280;50072;50.678;13.938;2023-04-02T10:18:50;99724.00;;;6.89;68.20
63903;BME280;50072;50.678;13.938;2023-04-02T10:21:24;99722.00;;;7.13;69.95
63903;BME280;50072;50.678;13.938;2023-04-02T10:23:54;99723.75;;;7.14;67.81
63903;BME280;50072;50.678;13.938;2023-04-02T10:26:58;99732.81;;;6.94;68.75
63903;BME280;50072;50.678;13.938;2023-04-02T10:33:04;99737.56;;;6.56;72.65
63903;BME280;50072;50.678;13.938;2023-04-02T10:41:36;99743.34;;;5.68;77.52
63903;BME280;50072;50.678;13.938;2023-04-02T10:52:55;99770.91;;;5.09;79.89
63903;BME280;50072;50.678;13.938;2023-04-02T10:56:06;99775.34;;;4.94;80.71
63903;BME280;50072;50.678;13.938;2023-04-02T10:59:12;99794.81;;;4.86;82.14
63903;BME280;50072;50.678;13.938;2023-04-02T11:01:45;99789.50;;;4.90;81.06
63903;BME280;50072;50.678;13.938;2023-04-02T11:04:28;99793.03;;;5.09;82.04
63903;BME280;50072;50.678;13.938;2023-04-02T11:07:17;99801.88;;;5.21;81.92
63903;BME280;50072;50.678;13.938;2023-04-02T11:09:55;99804.53;;;5.07;82.33
63903;BME280;50072;50.678;13.938;2023-04-02T11:12:25;99818.69;;;4.93;80.86
63903;BME280;50072;50.678;13.938;2023-04-02T11:14:55;99826.63;;;4.89;81.41
63903;BME280;50072;50.678;13.938;2023-04-02T11:17:23;99825.75;;;4.88;80.64
63903;BME280;50072;50.678;13.938;2023-04-02T11:20:40;99823.97;;;4.61;81.35
63903;BME280;50072;50.678;13.938;2023-04-02T11:23:12;99823.09;;;4.65;82.17
63903;BME280;50072;50.678;13.938;2023-04-02T11:25:42;99825.75;;;4.87;82.07
63903;BME280;50072;50.678;13.938;2023-04-02T11:28:29;99830.16;;;4.98;81.02
63903;BME280;50072;50.678;13.938;2023-04-02T11:30:57;99839.91;;;4.96;79.30
63903;BME280;50072;50.678;13.938;2023-04-02T11:33:42;99839.03;;;5.00;79.93
63903;BME280;50072;50.678;13.938;2023-04-02T11:39:44;99847.00;;;5.00;78.02
63903;BME280;50072;50.678;13.938;2023-04-02T11:44:45;99839.00;;;4.93;79.45
63903;BME280;50072;50.678;13.938;2023-04-02T11:47:21;99848.75;;;4.94;79.68
63903;BME280;50072;50.678;13.938;2023-04-02T11:55:34;99869.09;;;5.16;78.50
63903;BME280;50072;50.678;13.938;2023-04-02T12:07:34;99885.88;;;4.98;78.09
63903;BME280;50072;50.678;13.938;2023-04-02T12:10:17;99891.19;;;4.84;78.66
63903;BME280;50072;50.678;13.938;2023-04-02T12:12:43;99890.31;;;4.96;78.85
63903;BME280;50072;50.678;13.938;2023-04-02T12:15:44;99878.81;;;5.05;78.28
63903;BME280;50072;50.678;13.938;2023-04-02T12:18:18;99899.13;;;4.98;77.99
63903;BME280;50072;50.678;13.938;2023-04-02T12:20:52;99894.72;;;5.00;78.51
63903;BME280;50072;50.678;13.938;2023-04-02T12:23:31;99888.53;;;5.00;78.00
63903;BME280;50072;50.678;13.938;2023-04-02T12:26:25;99893.84;;;5.20;78.44
63903;BME280;50072;50.678;13.938;2023-04-02T12:28:52;99895.63;;;5.32;77.45
63903;BME280;50072;50.678;13.938;2023-04-02T12:31:46;99900.06;;;5.39;76.39
63903;BME280;50072;50.678;13.938;2023-04-02T12:34:17;99903.59;;;5.36;75.69
63903;BME280;50072;50.678;13.938;2023-04-02T12:37:00;99908.91;;;5.49;75.01
63903;BME280;50072;50.678;13.938;2023-04-02T12:39:51;99913.31;;;5.45;74.99
63903;BME280;50072;50.678;13.938;2023-04-02T12:42:30;99918.63;;;5.48;75.33
63903;BME280;50072;50.678;13.938;2023-04-02T12:44:57;99920.41;;;5.43;74.63
63903;BME280;50072;50.678;13.938;2023-04-02T12:47:43;99923.94;;;5.39;74.79
63903;BME280;50072;50.678;13.938;2023-04-02T12:50:14;99923.91;;;5.50;75.37
63903;BME280;50072;50.678;13.938;2023-04-02T12:52:52;99915.06;;;5.73;75.60
63903;BME280;50072;50.678;13.938;2023-04-02T12:55:24;99921.25;;;5.99;74.12
63903;BME280;50072;50.678;13.938;2023-04-02T12:57:58;99923.88;;;6.12;72.09
63903;BME280;50072;50.678;13.938;2023-04-02T13:00:43;99923.81;;;6.22;70.38
63903;BME280;50072;50.678;13.938;2023-04-02T13:03:16;99922.97;;;6.20;71.54
63903;BME280;50072;50.678;13.938;2023-04-02T13:06:20;99939.78;;;6.21;70.91
63903;BME280;50072;50.678;13.938;2023-04-02T13:08:49;99935.41;;;5.86;71.73
63903;BME280;50072;50.678;13.938;2023-04-02T13:11:38;99941.59;;;5.86;71.93
63903;BME280;50072;50.678;13.938;2023-04-02T13:14:19;99948.72;;;5.72;73.72
63903;BME280;50072;50.678;13.938;2023-04-02T13:16:46;99957.53;;;5.57;74.19
63903;BME280;50072;50.678;13.938;2023-04-02T13:21:52;99948.72;;;5.46;75.08
63903;BME280;50072;50.678;13.938;2023-04-02T13:24:26;99947.78;;;5.87;75.07
63903;BME280;50072;50.678;13.938;2023-04-02T13:26:56;99954.84;;;6.22;73.56
63903;BME280;50072;50.678;13.938;2023-04-02T13:29:31;99953.06;;;6.27;72.33
63903;BME280;50072;50.678;13.938;2023-04-02T13:32:04;99961.06;;;6.18;72.03
63903;BME280;50072;50.678;13.938;2023-04-02T13:34:32;99960.19;;;6.07;71.75
63903;BME280;50072;50.678;13.938;2023-04-02T13:37:13;99963.72;;;6.05;72.16
63903;BME280;50072;50.678;13.938;2023-04-02T13:39:44;99961.06;;;5.87;72.33
63903;BME280;50072;50.678;13.938;2023-04-02T13:42:10;99971.72;;;5.79;73.25
63903;BME280;50072;50.678;13.938;2023-04-02T13:44:42;99971.72;;;5.78;71.99
63903;BME280;50072;50.678;13.938;2023-04-02T13:47:14;99966.38;;;5.84;71.72
63903;BME280;50072;50.678;13.938;2023-04-02T13:49:40;99969.06;;;5.99;72.30
63903;BME280;50072;50.678;13.938;2023-04-02T13:52:14;99962.00;;;6.01;71.71
63903;BME280;50072;50.678;13.938;2023-04-02T13:54:54;99965.50;;;6.19;70.86
63903;BME280;50072;50.678;13.938;2023-04-02T13:57:25;99968.09;;;6.41;71.54
63903;BME280;50072;50.678;13.938;2023-04-02T13:59:58;99957.38;;;6.59;70.05
63903;BME280;50072;50.678;13.938;2023-04-02T14:02:33;99971.56;;;6.63;69.85
63903;BME280;50072;50.678;13.938;2023-04-02T14:05:13;99968.94;;;6.52;69.73
63903;BME280;50072;50.678;13.938;2023-04-02T14:19:25;99993.84;;;5.67;71.94
63903;BME280;50072;50.678;13.938;2023-04-02T14:30:16;99998.28;;;5.59;72.01
63903;BME280;50072;50.678;13.938;2023-04-02T14:33:23;100015.09;;;5.52;72.71
63903;BME280;50072;50.678;13.938;2023-04-02T14:36:22;100008.00;;;5.43;73.93
63903;BME280;50072;50.678;13.938;2023-04-02T14:41:57;100028.38;;;5.47;73.55
63903;BME280;50072;50.678;13.938;2023-04-02T14:44:29;100022.16;;;5.47;72.15
63903;BME280;50072;50.678;13.938;2023-04-02T14:47:34;100032.78;;;5.65;72.81
63903;BME280;50072;50.678;13.938;2023-04-02T14:50:10;100034.56;;;5.69;72.59
63903;BME280;50072;50.678;13.938;2023-04-02T14:52:37;100025.72;;;5.70;71.88
63903;BME280;50072;50.678;13.938;2023-04-02T14:55:17;100028.38;;;5.69;71.91
63903;BME280;50072;50.678;13.938;2023-04-02T14:57:49;100033.69;;;5.64;72.97
63903;BME280;50072;50.678;13.938;2023-04-02T15:00:31;100043.41;;;5.59;72.01
63903;BME280;50072;50.678;13.938;2023-04-02T15:05:52;100043.34;;;5.28;73.19
63903;BME280;50072;50.678;13.938;2023-04-02T15:14:15;100053.94;;;5.22;75.86
63903;BME280;50072;50.678;13.938;2023-04-02T15:16:43;100063.66;;;5.20;74.77
63903;BME280;50072;50.678;13.938;2023-04-02T15:19:14;100067.22;;;5.17;74.72
63903;BME280;50072;50.678;13.938;2023-04-02T15:22:14;100068.94;;;5.12;74.78
63903;BME280;50072;50.678;13.938;2023-04-02T15:27:50;100062.78;;;5.10;74.74
63903;BME280;50072;50.678;13.938;2023-04-02T15:30:34;100068.09;;;5.18;73.35
63903;BME280;50072;50.678;13.938;2023-04-02T15:33:37;100068.09;;;5.24;71.83
63903;BME280;50072;50.678;13.938;2023-04-02T15:36:31;100067.22;;;5.21;72.50
63903;BME280;50072;50.678;13.938;2023-04-02T15:41:32;100085.75;;;5.08;71.43
63903;BME280;50072;50.678;13.938;2023-04-02T15:44:11;100096.34;;;5.13;71.44
63903;BME280;50072;50.678;13.938;2023-04-02T15:46:48;100099.94;;;5.16;71.75
63903;BME280;50072;50.678;13.938;2023-04-02T15:52:33;100108.75;;;5.18;72.11
63903;BME280;50072;50.678;13.938;2023-04-02T15:57:54;100110.47;;;5.06;72.01
63903;BME280;50072;50.678;13.938;2023-04-02T16:03:57;100112.25;;;4.97;71.76
63903;BME280;50072;50.678;13.938;2023-04-02T16:06:59;100128.16;;;4.97;73.08
63903;BME280;50072;50.678;13.938;2023-04-02T16:09:45;100136.06;;;4.96;73.04
63903;BME280;50072;50.678;13.938;2023-04-02T16:12:17;100135.19;;;4.92;72.51
63903;BME280;50072;50.678;13.938;2023-04-02T16:14:46;100135.19;;;4.92;72.17
63903;BME280;50072;50.678;13.938;2023-04-02T16:17:27;100142.28;;;4.96;72.45
63903;BME280;50072;50.678;13.938;2023-04-02T16:20:19;100139.56;;;4.87;72.75
63903;BME280;50072;50.678;13.938;2023-04-02T16:22:58;100141.34;;;4.88;72.03
63903;BME280;50072;50.678;13.938;2023-04-02T16:25:57;100147.53;;;4.90;71.91
63903;BME280;50072;50.678;13.938;2023-04-02T16:28:39;100154.59;;;4.88;72.05
63903;BME280;50072;50.678;13.938;2023-04-02T16:31:15;100151.06;;;4.86;73.37
63903;BME280;50072;50.678;13.938;2023-04-02T16:34:06;100157.16;;;4.76;73.30
63903;BME280;50072;50.678;13.938;2023-04-02T16:45:34;100157.28;;;4.96;71.54
63903;BME280;50072;50.678;13.938;2023-04-02T16:48:28;100162.63;;;4.97;72.58
63903;BME280;50072;50.678;13.938;2023-04-02T16:53:49;100163.50;;;4.96;73.09
63903;BME280;50072;50.678;13.938;2023-04-02T16:56:39;100167.91;;;4.94;72.33
63903;BME280;50072;50.678;13.938;2023-04-02T17:04:59;100166.03;;;4.76;73.46
63903;BME280;50072;50.678;13.938;2023-04-02T17:13:43;100177.50;;;4.71;74.09
63903;BME280;50072;50.678;13.938;2023-04-02T17:18:41;100185.38;;;4.64;74.29
63903;BME280;50072;50.678;13.938;2023-04-02T17:21:12;100188.03;;;4.64;74.21
63903;BME280;50072;50.678;13.938;2023-04-02T17:24:05;100194.22;;;4.63;74.62
63903;BME280;50072;50.678;13.938;2023-04-02T17:26:44;100198.59;;;4.57;74.56
63903;BME280;50072;50.678;13.938;2023-04-02T17:29:35;100197.59;;;4.44;74.83
63903;BME280;50072;50.678;13.938;2023-04-02T17:32:41;100202.91;;;4.45;74.59
63903;BME280;50072;50.678;13.938;2023-04-02T17:35:29;100208.19;;;4.41;75.05